createdAt,value
2023-04-18T00:01:21.482Z,26.67
2023-04-18T00:03:52.123Z,28.10
2023-04-18T00:06:22.290Z,32.17
2023-04-18T00:08:50.486Z,30.33
2023-04-18T00:11:18.700Z,28.93
2023-04-18T00:13:47.568Z,29.10
2023-04-18T00:16:17.804Z,25.87
2023-04-18T00:18:48.255Z,30.17
2023-04-18T00:21:17.524Z,29.07
2023-04-18T00:23:46.158Z,37.13
2023-04-18T00:26:14.752Z,29.20
2023-04-18T00:28:42.704Z,31.57
2023-04-18T00:31:13.911Z,33.53
2023-04-18T00:33:42.012Z,36.53
2023-04-18T00:36:11.524Z,34.03
2023-04-18T00:38:39.911Z,32.83
2023-04-18T00:41:08.015Z,30.80
2023-04-18T00:43:37.233Z,29.80
2023-04-18T00:46:05.439Z,31.03
2023-04-18T00:48:33.562Z,32.90
2023-04-18T00:51:02.045Z,37.03
2023-04-18T00:53:32.007Z,35.13
2023-04-18T00:56:00.192Z,34.33
2023-04-18T00:58:28.679Z,39.77
2023-04-18T01:00:56.944Z,36.50
2023-04-18T01:03:25.825Z,39.90
2023-04-18T01:05:55.271Z,43.17
2023-04-18T01:08:23.487Z,40.47
2023-04-18T01:10:53.315Z,36.57
2023-04-18T01:13:22.346Z,39.17
2023-04-18T01:15:52.136Z,41.70
2023-04-18T01:18:20.869Z,36.67
2023-04-18T01:20:50.410Z,42.67
2023-04-18T01:23:20.558Z,114.97
2023-04-18T01:25:50.518Z,41.33
2023-04-18T01:28:19.498Z,40.53
2023-04-18T01:30:47.553Z,41.80
2023-04-18T01:33:15.662Z,40.73
2023-04-18T01:35:43.850Z,41.27
2023-04-18T01:38:11.996Z,37.80
2023-04-18T01:40:40.150Z,37.53
2023-04-18T01:43:09.743Z,37.83
2023-04-18T01:45:37.788Z,38.60
2023-04-18T01:48:06.157Z,40.73
2023-04-18T01:50:34.298Z,35.23
2023-04-18T01:53:02.384Z,38.00
2023-04-18T01:55:30.616Z,40.23
2023-04-18T01:57:58.708Z,38.33
2023-04-18T02:00:28.490Z,41.83
2023-04-18T02:02:56.788Z,37.43
2023-04-18T02:05:27.390Z,38.87
2023-04-18T02:07:55.496Z,39.00
2023-04-18T02:10:23.888Z,37.60
2023-04-18T02:12:52.104Z,42.87
2023-04-18T02:15:20.984Z,37.43
2023-04-18T02:17:50.584Z,40.67
2023-04-18T02:20:18.787Z,41.43
2023-04-18T02:22:48.251Z,42.93
2023-04-18T02:25:16.288Z,42.87
2023-04-18T02:27:44.444Z,49.00
2023-04-18T02:30:13.026Z,46.07
2023-04-18T02:32:41.200Z,43.47
2023-04-18T02:35:11.611Z,43.47
2023-04-18T02:37:39.763Z,39.33
2023-04-18T02:40:09.288Z,45.80
2023-04-18T02:42:37.403Z,40.63
2023-04-18T02:45:06.298Z,37.50
2023-04-18T02:47:46.929Z,39.17
2023-04-18T02:50:21.117Z,40.20
2023-04-18T02:52:49.176Z,36.13
2023-04-18T02:55:17.652Z,39.33
2023-04-18T02:57:46.453Z,36.00
2023-04-18T03:00:16.248Z,30.00
2023-04-18T03:02:44.720Z,33.37
2023-04-18T03:05:13.079Z,30.93
2023-04-18T03:07:42.525Z,30.43
2023-04-18T03:10:11.368Z,30.67
2023-04-18T03:12:39.510Z,30.43
2023-04-18T03:15:08.940Z,29.80
2023-04-18T03:17:37.337Z,30.17
2023-04-18T03:20:06.269Z,32.03
2023-04-18T03:22:34.404Z,33.77
2023-04-18T03:25:03.936Z,26.03
2023-04-18T03:27:31.993Z,29.60
2023-04-18T03:30:00.114Z,29.30
2023-04-18T03:32:28.448Z,27.83
2023-04-18T03:35:00.212Z,27.80
2023-04-18T03:37:28.668Z,30.67
2023-04-18T03:39:57.264Z,29.40
2023-04-18T03:42:26.807Z,28.13
2023-04-18T03:44:54.848Z,29.07
2023-04-18T03:47:22.994Z,29.77
2023-04-18T03:49:51.245Z,28.33
2023-04-18T03:52:20.270Z,30.73
2023-04-18T03:54:48.622Z,29.00
2023-04-18T03:57:16.727Z,26.17
2023-04-18T03:59:47.921Z,33.93
2023-04-18T04:02:16.206Z,34.27
2023-04-18T04:04:44.404Z,39.17
2023-04-18T04:07:13.495Z,41.87
2023-04-18T04:09:41.614Z,38.20
2023-04-18T04:12:09.710Z,37.30
2023-04-18T04:14:37.944Z,36.10
2023-04-18T04:17:07.640Z,32.67
2023-04-18T04:19:36.156Z,30.43
2023-04-18T04:22:04.398Z,35.83
2023-04-18T04:24:33.350Z,31.30
2023-04-18T04:27:02.610Z,36.03
2023-04-18T04:29:30.878Z,48.57
2023-04-18T04:31:59.702Z,35.67
2023-04-18T04:34:29.204Z,33.23
2023-04-18T04:36:57.274Z,39.07
2023-04-18T04:39:26.217Z,40.27
2023-04-18T04:41:54.671Z,34.97
2023-04-18T04:44:27.001Z,34.90
2023-04-18T04:46:56.586Z,32.53
2023-04-18T04:49:24.665Z,35.50
2023-04-18T04:51:54.805Z,43.83
2023-04-18T04:54:23.677Z,41.20
2023-04-18T04:56:51.785Z,39.47
2023-04-18T04:59:20.038Z,36.67
2023-04-18T05:01:48.330Z,35.43
2023-04-18T05:04:17.340Z,36.73
2023-04-18T05:06:46.856Z,32.40
2023-04-18T05:09:33.940Z,36.47
2023-04-18T05:12:02.065Z,30.63
2023-04-18T05:14:31.231Z,32.17
2023-04-18T05:16:59.394Z,31.40
2023-04-18T05:19:27.578Z,33.40
2023-04-18T05:21:56.044Z,31.07
2023-04-18T05:24:25.646Z,35.03
2023-04-18T05:26:54.900Z,37.60
2023-04-18T05:29:22.904Z,41.00
2023-04-18T05:31:50.867Z,37.97
2023-04-18T05:34:19.058Z,33.77
2023-04-18T05:36:47.786Z,34.60
2023-04-18T05:39:16.256Z,34.63
2023-04-18T05:41:45.717Z,35.57
2023-04-18T05:44:13.818Z,39.43
2023-04-18T05:46:41.922Z,33.90
2023-04-18T05:49:10.204Z,33.17
2023-04-18T05:51:38.529Z,32.50
2023-04-18T05:54:06.776Z,34.07
2023-04-18T05:56:34.837Z,32.73
2023-04-18T05:59:04.324Z,31.07
2023-04-18T06:01:32.634Z,32.63
2023-04-18T06:04:01.929Z,33.03
2023-04-18T06:06:30.305Z,32.40
2023-04-18T06:08:58.756Z,33.17
2023-04-18T06:11:27.341Z,30.50
2023-04-18T06:13:56.892Z,27.90
2023-04-18T06:16:26.629Z,27.20
2023-04-18T06:18:56.192Z,28.90
2023-04-18T06:21:24.317Z,27.23
2023-04-18T06:23:52.460Z,30.37
2023-04-18T06:26:21.083Z,29.20
2023-04-18T06:28:49.295Z,29.07
2023-04-18T06:31:18.011Z,24.47
2023-04-18T06:33:47.739Z,30.47
2023-04-18T06:36:16.382Z,28.60
2023-04-18T06:38:44.404Z,29.33
2023-04-18T06:41:12.521Z,34.33
2023-04-18T06:43:49.177Z,27.67
2023-04-18T06:46:27.997Z,28.10
2023-04-18T06:48:58.370Z,27.63
2023-04-18T06:51:27.047Z,29.50
2023-04-18T06:53:55.246Z,32.17
2023-04-18T06:56:23.723Z,28.37
2023-04-18T06:58:53.232Z,27.83
2023-04-18T07:01:21.530Z,28.23
2023-04-18T07:03:51.023Z,27.57
2023-04-18T07:06:21.575Z,25.33
2023-04-18T07:08:49.699Z,30.17
2023-04-18T07:11:18.612Z,25.80
2023-04-18T07:13:47.539Z,24.93
2023-04-18T07:16:16.158Z,25.87
2023-04-18T07:18:44.179Z,26.63
2023-04-18T07:21:13.126Z,27.80
2023-04-18T07:23:42.869Z,25.07
2023-04-18T07:26:13.394Z,27.83
2023-04-18T07:28:41.521Z,23.38
2023-04-18T07:31:11.685Z,26.17
2023-04-18T07:33:40.335Z,22.23
2023-04-18T07:36:09.190Z,24.17
2023-04-18T07:38:37.818Z,24.55
2023-04-18T07:41:07.367Z,23.10
2023-04-18T07:43:35.674Z,24.45
2023-04-18T07:46:03.995Z,22.83
2023-04-18T07:48:32.229Z,20.50
2023-04-18T07:51:00.432Z,22.65
2023-04-18T07:53:28.523Z,21.83
2023-04-18T07:55:56.814Z,18.98
2023-04-18T07:58:27.225Z,20.97
2023-04-18T08:00:55.715Z,22.17
2023-04-18T08:03:24.224Z,25.20
2023-04-18T08:05:52.799Z,23.77
2023-04-18T08:08:21.583Z,25.83
2023-04-18T08:10:49.738Z,23.23
2023-04-18T08:13:18.442Z,22.13
2023-04-18T08:15:48.334Z,21.10
2023-04-18T08:18:16.429Z,27.67
2023-04-18T08:20:44.533Z,18.95
2023-04-18T08:23:13.339Z,19.15
2023-04-18T08:25:41.807Z,21.38
2023-04-18T08:28:11.142Z,22.17
2023-04-18T08:30:39.236Z,21.20
2023-04-18T08:33:08.862Z,18.83
2023-04-18T08:35:37.071Z,20.08
2023-04-18T08:38:05.325Z,20.67
2023-04-18T08:40:33.507Z,20.30
2023-04-18T08:43:04.958Z,23.50
2023-04-18T08:45:33.551Z,20.17
2023-04-18T08:48:03.684Z,24.77
2023-04-18T08:50:33.909Z,35.37
2023-04-18T08:53:02.395Z,28.00
2023-04-18T08:55:30.546Z,23.90
2023-04-18T08:57:59.774Z,26.90
2023-04-18T09:00:29.372Z,21.27
2023-04-18T09:02:58.373Z,44.23
2023-04-18T09:05:27.956Z,34.50
2023-04-18T09:07:58.036Z,28.17
2023-04-18T09:10:28.815Z,27.73
2023-04-18T09:12:58.040Z,29.00
2023-04-18T09:15:28.721Z,32.90
2023-04-18T09:17:58.734Z,34.33
2023-04-18T09:20:40.224Z,27.70
2023-04-18T09:23:11.472Z,30.07
2023-04-18T09:25:46.852Z,25.13
2023-04-18T09:28:27.117Z,23.30
2023-04-18T09:30:57.181Z,25.40
2023-04-18T09:33:32.765Z,15.17
2023-04-18T09:36:19.872Z,21.20
2023-04-18T09:38:50.048Z,27.43
2023-04-18T09:41:20.851Z,34.03
2023-04-18T09:43:49.774Z,35.50
2023-04-18T09:46:18.742Z,27.97
2023-04-18T09:48:47.245Z,37.83
2023-04-18T09:51:17.268Z,32.00
2023-04-18T09:53:47.905Z,24.47
2023-04-18T09:56:26.436Z,29.43
2023-04-18T09:58:58.695Z,34.00
2023-04-18T10:01:29.526Z,34.20
2023-04-18T10:03:59.054Z,32.50
2023-04-18T10:06:28.694Z,31.03
2023-04-18T10:08:58.553Z,37.57
2023-04-18T10:11:28.478Z,32.87
2023-04-18T10:13:59.813Z,28.53
2023-04-18T10:16:28.859Z,28.20
2023-04-18T10:18:58.475Z,31.10
2023-04-18T10:21:29.811Z,30.10
2023-04-18T10:23:58.030Z,32.37
2023-04-18T10:26:50.241Z,28.90
2023-04-18T10:29:18.860Z,36.10
2023-04-18T10:31:48.570Z,33.37
2023-04-18T10:34:19.833Z,38.10
2023-04-18T10:37:06.414Z,37.00
2023-04-18T10:39:49.737Z,33.40
2023-04-18T10:42:19.257Z,38.70
2023-04-18T10:45:22.872Z,31.17
2023-04-18T10:47:51.366Z,37.13
2023-04-18T10:50:19.555Z,33.37
2023-04-18T10:52:47.875Z,32.03
2023-04-18T10:55:22.160Z,33.23
2023-04-18T10:57:51.920Z,31.97
2023-04-18T11:00:21.907Z,31.73
2023-04-18T11:02:52.787Z,35.20
2023-04-18T11:05:23.036Z,34.40
2023-04-18T11:07:51.689Z,39.17
2023-04-18T11:10:21.146Z,31.30
2023-04-18T11:12:52.697Z,37.07
2023-04-18T11:15:22.723Z,33.50
2023-04-18T11:17:59.770Z,29.80
2023-04-18T11:20:38.853Z,28.63
2023-04-18T11:23:17.273Z,29.55
2023-04-18T11:25:47.166Z,33.00
2023-04-18T11:28:20.610Z,34.43
2023-04-18T11:30:49.629Z,32.73
2023-04-18T11:33:17.860Z,37.07
2023-04-18T11:35:47.483Z,32.13
2023-04-18T11:38:16.902Z,33.37
2023-04-18T11:40:48.995Z,31.93
2023-04-18T11:43:23.106Z,34.60
2023-04-18T11:45:56.321Z,32.37
2023-04-18T11:48:24.841Z,33.87
2023-04-18T11:50:52.992Z,32.00
2023-04-18T11:53:34.256Z,34.67
2023-04-18T11:56:03.738Z,33.57
2023-04-18T11:58:34.428Z,32.80
2023-04-18T12:01:17.134Z,35.42
2023-04-18T12:03:46.287Z,33.77
2023-04-18T12:06:15.850Z,37.23
2023-04-18T12:08:45.366Z,34.37
2023-04-18T12:11:21.715Z,34.00
2023-04-18T12:13:52.012Z,33.07
2023-04-18T12:16:20.441Z,36.17
2023-04-18T12:18:49.472Z,32.20
2023-04-18T12:21:18.798Z,35.53
2023-04-18T12:23:48.382Z,37.63
2023-04-18T12:26:18.965Z,38.30
2023-04-18T12:28:48.178Z,38.40
2023-04-18T12:31:17.722Z,40.80
2023-04-18T12:33:45.925Z,41.77
2023-04-18T12:36:14.009Z,37.63
2023-04-18T12:38:42.112Z,35.27
2023-04-18T12:41:10.185Z,38.90
2023-04-18T12:43:39.669Z,37.10
2023-04-18T12:46:07.815Z,45.13
2023-04-18T12:48:37.308Z,35.17
2023-04-18T12:51:07.077Z,35.47
2023-04-18T12:53:35.805Z,34.00
2023-04-18T12:56:03.757Z,31.10
2023-04-18T12:58:32.072Z,31.20
2023-04-18T13:01:01.173Z,32.17
2023-04-18T13:03:29.430Z,35.03
2023-04-18T13:06:00.306Z,26.73
2023-04-18T13:08:28.406Z,32.23
2023-04-18T13:10:57.384Z,34.20
2023-04-18T13:13:25.562Z,37.50
2023-04-18T13:15:55.946Z,37.30
2023-04-18T13:18:24.094Z,36.23
2023-04-18T13:20:52.592Z,35.27
2023-04-18T13:23:22.328Z,31.50
2023-04-18T13:25:50.731Z,27.00
2023-04-18T13:28:20.975Z,26.53
2023-04-18T13:30:49.165Z,29.13
2023-04-18T13:33:18.717Z,28.53
2023-04-18T13:35:46.829Z,30.13
2023-04-18T13:38:15.059Z,28.37
2023-04-18T13:40:44.547Z,27.50
2023-04-18T13:43:13.148Z,28.20
2023-04-18T13:45:41.380Z,25.33
2023-04-18T13:48:09.695Z,29.73
2023-04-18T13:50:37.967Z,29.87
2023-04-18T13:53:06.209Z,34.10
2023-04-18T13:55:34.296Z,32.27
2023-04-18T13:58:03.744Z,35.30
2023-04-18T14:00:31.853Z,30.67
2023-04-18T14:03:00.161Z,28.83
2023-04-18T14:05:28.689Z,30.10
2023-04-18T14:08:02.486Z,28.83
2023-04-18T14:10:31.856Z,29.33
2023-04-18T14:13:00.064Z,29.13
2023-04-18T14:15:30.287Z,29.37
2023-04-18T14:17:59.392Z,26.87
2023-04-18T14:20:34.279Z,29.90
2023-04-18T14:23:02.506Z,30.33
2023-04-18T14:25:31.201Z,33.33
2023-04-18T14:28:08.197Z,28.40
2023-04-18T14:30:39.838Z,31.37
2023-04-18T14:33:09.351Z,29.07
2023-04-18T14:35:37.573Z,26.57
2023-04-18T14:38:08.988Z,29.80
2023-04-18T14:40:37.670Z,27.67
2023-04-18T14:43:05.855Z,25.40
2023-04-18T14:45:35.443Z,29.63
2023-04-18T14:48:06.793Z,26.97
2023-04-18T14:50:38.625Z,32.53
2023-04-18T14:53:07.165Z,30.30
2023-04-18T14:55:37.666Z,28.47
2023-04-18T14:58:06.835Z,29.60
2023-04-18T15:00:35.022Z,33.90
2023-04-18T15:03:08.264Z,29.27
2023-04-18T15:05:45.182Z,27.20
2023-04-18T15:08:13.465Z,29.80
2023-04-18T15:10:42.644Z,28.07
2023-04-18T15:13:11.060Z,28.20
2023-04-18T15:15:40.066Z,26.73
2023-04-18T15:18:11.063Z,27.77
2023-04-18T15:20:39.695Z,25.47
2023-04-18T15:23:09.958Z,27.30
2023-04-18T15:25:38.234Z,28.70
2023-04-18T15:28:07.163Z,25.88
2023-04-18T15:30:35.287Z,28.77
2023-04-18T15:33:03.623Z,43.20
2023-04-18T15:35:33.263Z,29.95
2023-04-18T15:38:01.401Z,27.47
2023-04-18T15:40:29.666Z,23.05
2023-04-18T15:42:59.687Z,24.80
2023-04-18T15:45:32.371Z,26.73
2023-04-18T15:48:00.504Z,22.67
2023-04-18T15:50:29.220Z,23.83
2023-04-18T15:52:59.903Z,24.70
2023-04-18T15:55:30.282Z,25.20
2023-04-18T15:57:58.508Z,24.17
2023-04-18T16:00:27.125Z,22.17
2023-04-18T16:02:55.444Z,24.87
2023-04-18T16:05:23.844Z,21.87
2023-04-18T16:07:54.054Z,20.80
2023-04-18T16:10:24.130Z,19.37
2023-04-18T16:12:52.535Z,21.67
2023-04-18T16:15:21.217Z,17.80
2023-04-18T16:17:49.667Z,21.30
2023-04-18T16:20:18.088Z,20.90
2023-04-18T16:22:46.756Z,18.67
2023-04-18T16:25:15.777Z,21.13
2023-04-18T16:27:45.580Z,22.17
2023-04-18T16:30:14.586Z,21.43
2023-04-18T16:32:42.945Z,21.23
2023-04-18T16:35:11.634Z,20.93
2023-04-18T16:37:40.897Z,22.50
2023-04-18T16:40:11.413Z,23.20
2023-04-18T16:42:42.334Z,20.97
2023-04-18T16:45:13.111Z,23.20
2023-04-18T16:47:41.606Z,23.10
2023-04-18T16:50:11.066Z,23.80
2023-04-18T16:52:39.351Z,25.53
2023-04-18T16:55:08.966Z,25.33
2023-04-18T16:57:37.108Z,27.23
2023-04-18T17:00:06.880Z,25.97
2023-04-18T17:02:38.400Z,25.50
2023-04-18T17:05:08.083Z,24.57
2023-04-18T17:07:36.232Z,25.10
2023-04-18T17:10:05.425Z,21.33
2023-04-18T17:12:33.657Z,20.47
2023-04-18T17:15:01.792Z,22.67
2023-04-18T17:17:29.925Z,22.03
2023-04-18T17:20:00.352Z,22.83
2023-04-18T17:22:29.533Z,23.93
2023-04-18T17:24:57.603Z,27.40
2023-04-18T17:27:26.039Z,24.17
2023-04-18T17:29:54.414Z,21.70
2023-04-18T17:32:22.709Z,21.93
2023-04-18T17:34:51.575Z,27.00
2023-04-18T17:37:22.457Z,23.23
2023-04-18T17:39:51.017Z,26.53
2023-04-18T17:42:21.274Z,27.10
2023-04-18T17:44:50.173Z,23.83
2023-04-18T17:47:19.405Z,25.00
2023-04-18T17:49:49.176Z,28.27
2023-04-18T17:52:17.990Z,27.27
2023-04-18T17:54:47.918Z,25.03
2023-04-18T17:57:16.001Z,27.03
2023-04-18T17:59:44.113Z,28.37
2023-04-18T18:02:12.696Z,25.17
2023-04-18T18:04:41.025Z,26.70
2023-04-18T18:07:09.374Z,32.47
2023-04-18T18:09:37.546Z,23.73
2023-04-18T18:12:07.322Z,27.27
2023-04-18T18:14:35.422Z,25.27
2023-04-18T18:17:03.731Z,26.63
2023-04-18T18:19:31.838Z,26.20
2023-04-18T18:22:00.038Z,25.60
2023-04-18T18:24:28.117Z,29.37
2023-04-18T18:26:56.440Z,28.30
2023-04-18T18:29:26.156Z,29.77
2023-04-18T18:31:54.301Z,30.03
2023-04-18T18:34:24.533Z,29.83
2023-04-18T18:36:52.664Z,29.23
2023-04-18T18:39:20.887Z,27.47
2023-04-18T18:41:49.087Z,26.33
2023-04-18T18:44:17.644Z,31.20
2023-04-18T18:46:47.457Z,26.30
2023-04-18T18:49:16.136Z,30.30
2023-04-18T18:51:44.545Z,29.20
2023-04-18T18:54:13.257Z,31.23
2023-04-18T18:56:43.787Z,30.40
2023-04-18T18:59:12.197Z,30.43
2023-04-18T19:01:41.247Z,30.77
2023-04-18T19:04:11.172Z,31.47
2023-04-18T19:06:40.119Z,29.77
2023-04-18T19:09:10.340Z,30.80
2023-04-18T19:11:38.568Z,31.23
2023-04-18T19:14:06.931Z,25.83
2023-04-18T19:16:36.148Z,25.23
2023-04-18T19:19:04.554Z,25.10
2023-04-18T19:21:34.122Z,24.73
2023-04-18T19:24:02.371Z,21.00
2023-04-18T19:26:30.521Z,22.80
2023-04-18T19:28:58.640Z,22.50
2023-04-18T19:31:26.790Z,21.17
2023-04-18T19:33:55.081Z,18.67
2023-04-18T19:36:23.724Z,18.97
2023-04-18T19:38:53.264Z,22.00
2023-04-18T19:41:22.051Z,18.53
2023-04-18T19:43:50.419Z,19.13
2023-04-18T19:46:18.581Z,21.30
2023-04-18T19:48:47.112Z,23.20
2023-04-18T19:51:15.979Z,23.03
2023-04-18T19:53:44.197Z,17.33
2023-04-18T19:56:15.039Z,13.83
2023-04-18T19:58:46.896Z,12.53
2023-04-18T20:01:15.837Z,15.20
2023-04-18T20:03:44.577Z,16.67
2023-04-18T20:06:13.197Z,16.43
2023-04-18T20:08:42.843Z,15.97
2023-04-18T20:11:14.840Z,14.17
2023-04-18T20:13:43.602Z,11.43
2023-04-18T20:16:12.383Z,14.33
2023-04-18T20:18:42.247Z,16.00
2023-04-18T20:21:12.194Z,13.57
2023-04-18T20:23:42.144Z,14.20
2023-04-18T20:26:10.512Z,16.10
2023-04-18T20:28:40.082Z,14.77
2023-04-18T20:31:08.471Z,15.83
2023-04-18T20:33:38.179Z,18.10
2023-04-18T20:36:07.581Z,20.23
2023-04-18T20:38:36.965Z,20.83
2023-04-18T20:41:06.485Z,20.40
2023-04-18T20:43:37.397Z,22.73
2023-04-18T20:46:07.222Z,21.33
2023-04-18T20:48:35.448Z,22.60
2023-04-18T20:51:03.564Z,18.50
2023-04-18T20:53:32.021Z,21.27
2023-04-18T20:56:02.343Z,17.83
2023-04-18T20:58:31.152Z,18.70
2023-04-18T21:00:59.266Z,19.03
2023-04-18T21:03:28.964Z,17.53
2023-04-18T21:05:57.134Z,17.07
2023-04-18T21:08:25.386Z,17.50
2023-04-18T21:10:55.191Z,19.13
2023-04-18T21:13:23.323Z,18.07
2023-04-18T21:15:52.275Z,19.67
2023-04-18T21:18:20.435Z,21.30
2023-04-18T21:20:50.447Z,19.50
2023-04-18T21:23:18.546Z,18.13
2023-04-18T21:25:46.680Z,18.77
2023-04-18T21:28:14.783Z,18.63
2023-04-18T21:30:43.126Z,20.97
2023-04-18T21:33:11.591Z,19.90
2023-04-18T21:35:39.744Z,20.70
2023-04-18T21:38:09.185Z,21.73
2023-04-18T21:40:38.774Z,21.10
2023-04-18T21:43:06.823Z,21.43
2023-04-18T21:45:35.020Z,19.87
2023-04-18T21:48:03.164Z,18.77
2023-04-18T21:50:31.392Z,17.60
2023-04-18T21:52:59.482Z,18.23
2023-04-18T21:55:29.169Z,18.97
2023-04-18T21:57:57.252Z,20.90
2023-04-18T22:00:25.350Z,16.33
2023-04-18T22:02:53.844Z,18.80
2023-04-18T22:05:22.055Z,15.70
2023-04-18T22:07:58.086Z,16.13
2023-04-18T22:10:28.176Z,16.63
2023-04-18T22:28:30.362Z,15.53
2023-04-18T22:30:58.550Z,14.70
2023-04-18T22:33:27.007Z,14.80
2023-04-18T22:35:56.659Z,16.80
2023-04-18T22:38:26.319Z,19.13
2023-04-18T22:40:54.405Z,18.23
2023-04-18T22:43:23.974Z,19.07
2023-04-18T22:45:53.651Z,18.53
2023-04-18T22:48:21.764Z,17.80
2023-04-18T22:50:50.143Z,19.50
2023-04-18T22:53:18.472Z,17.80
2023-04-18T22:55:47.145Z,14.27
2023-04-18T22:58:15.280Z,19.77
2023-04-18T23:00:43.732Z,16.53
2023-04-18T23:03:13.480Z,13.40
2023-04-18T23:05:43.173Z,13.90
2023-04-18T23:08:11.959Z,12.37
2023-04-18T23:10:40.286Z,15.47
2023-04-18T23:13:08.392Z,13.27
2023-04-18T23:15:36.499Z,13.30
2023-04-18T23:18:04.637Z,11.27
2023-04-18T23:20:34.194Z,11.27
2023-04-18T23:23:02.500Z,11.17
2023-04-18T23:25:33.479Z,8.43
2023-04-18T23:28:01.637Z,10.17
2023-04-18T23:30:29.716Z,9.30
2023-04-18T23:32:59.270Z,11.37
2023-04-18T23:35:27.398Z,10.87
2023-04-18T23:37:57.298Z,9.67
2023-04-18T23:40:25.842Z,9.27
2023-04-18T23:42:53.984Z,9.93
2023-04-18T23:45:24.475Z,8.30
2023-04-18T23:47:53.434Z,8.47
2023-04-18T23:50:21.746Z,8.70
2023-04-18T23:52:49.986Z,10.13
2023-04-18T23:55:19.703Z,10.70
2023-04-18T23:57:47.684Z,9.97
